1951 16W:AMY (1951337N09150)


On this page: IBTrACS data - Map and Plots - Positions - Intensities - Original source data

Summary

Start Dec 3
End Dec 19
Basin WP
LMI 120 kt
Sources jtwc_wp
tokyo
cma
td9636
td9635
ds824_wp
In WMO? Yes
Previous storm 1951 MISSING (EP)
Previous in basin 1951 MISSING (WP)
Concurrent storms 1952 02S (SI)
1951 16W (WP)
1951 15B (NI)
1951 17W (WP)
1952 03P (SP)
Next in basin 1951 17W (WP)
Next storm 1951 15B (NI)

top of page IBTrACS Data: File Access

No storm imagery available

top of page Plots:

Map of storm track will not appear if FTP is down
Time series of cyclone Maximum Sustained Wind will not appear if FTP is down
Time series of cyclone Minimum Central Pressure will not appear if FTP is down

top of page Track Data:Position

jtwc_wp tokyo cma td9636 td9635 ds824_wp
Date Lat Lon Lat Lon Lat Lon Lat Lon Lat Lon Lat Lon
1951-12-03 00:00:00 9.0 150.1 9.0 150.4 9.0 150.4 9.0 150.1 9.0 150.1 9.0 150.1
1951-12-03 06:00:00 9.0 149.2 9.2 149.3 9.1 149.4 9.0 149.4 9.0 149.2 9.0 149.2
1951-12-03 12:00:00 9.0 148.5 9.1 148.3 9.1 148.3 9.0 148.5 9.0 148.5 9.0 148.5
1951-12-03 18:00:00 9.0 147.2 9.0 147.3 9.0 147.3 9.0 147.4 9.0 147.2 9.0 147.2
1951-12-04 00:00:00 9.1 146.1 9.0 146.4 9.0 146.5 9.1 146.1 9.1 146.1 9.1 146.1
1951-12-04 06:00:00 9.2 144.8 9.3 145.6 9.1 145.5 9.2 145.0 9.2 144.8 9.2 144.8
1951-12-04 12:00:00 9.5 143.8 9.5 144.0 9.3 144.0 9.5 143.8 9.5 143.8 9.5 143.8
1951-12-04 18:00:00 9.9 141.9 9.7 142.5 9.6 142.5 10.0 142.2 9.9 141.9 9.9 141.9
1951-12-05 00:00:00 10.5 140.5 10.0 141.0 10.0 141.0 10.5 140.5 10.5 140.5 10.5 140.5
1951-12-05 06:00:00 11.1 139.1 11.3 139.0 11.3 139.0 11.0 139.2 11.1 139.1 11.1 139.1
1951-12-05 12:00:00 11.4 138.0 11.7 137.5 11.7 137.5 11.4 138.0 11.4 138.0 11.4 138.0
1951-12-05 18:00:00 11.8 136.4 11.8 136.0 11.9 136.0 11.8 136.5 11.8 136.4 11.8 136.4
1951-12-06 00:00:00 12.0 135.0 12.0 134.5 12.0 134.5 12.0 135.0 12.0 135.0 12.0 135.0
1951-12-06 06:00:00 11.9 134.1 11.9 133.5 12.0 133.5 12.0 133.9 11.9 134.1 11.9 134.1
1951-12-06 12:00:00 12.0 133.0 11.9 132.9 12.0 132.9 12.0 133.0 12.0 133.0 12.0 133.0
1951-12-06 18:00:00 12.0 132.5 11.9 132.3 12.0 132.3 12.0 132.2 12.0 132.5 12.0 132.5
1951-12-07 00:00:00 12.0 131.6 11.9 131.7 12.0 131.6 12.0 131.6 12.0 131.6 12.0 131.6
1951-12-07 06:00:00 12.0 131.6 12.0 131.2 12.0 131.1 12.1 131.0 12.0 131.6 12.0 131.6
1951-12-07 12:00:00 12.2 130.5 12.0 130.6 12.0 130.5 12.2 130.5 12.2 130.5 12.2 130.5
1951-12-07 18:00:00 12.3 129.8 12.0 130.0 12.0 129.9 12.3 129.9 12.3 129.8 12.3 129.8
1951-12-08 00:00:00 12.3 129.2 12.0 129.3 12.0 129.3 12.3 129.2 12.3 129.2 12.3 129.2
1951-12-08 06:00:00 12.1 128.5 12.0 128.6 11.9 128.5 12.1 128.5 12.1 128.5 12.1 128.5
1951-12-08 12:00:00 11.8 127.9 11.7 127.9 11.8 127.9 11.8 127.9 11.8 127.9 11.8 127.9
1951-12-08 18:00:00 11.6 127.4 11.4 127.3 11.4 127.2 11.5 127.4 11.6 127.4 11.6 127.4
1951-12-09 00:00:00 11.2 126.8 11.1 126.8 11.1 126.7 11.2 126.8 11.2 126.8 11.2 126.8
jtwc_wp tokyo cma td9636 td9635 ds824_wp
1951-12-09 06:00:00 11.0 126.0 11.0 125.6 10.8 125.9 11.0 125.9 11.0 126.0 11.0 126.0
1951-12-09 12:00:00 10.8 124.8 10.8 124.7 10.4 124.9 10.8 124.8 10.8 124.8 10.8 124.8
1951-12-09 18:00:00 10.6 123.7 10.7 123.7 10.4 123.7 10.6 123.7 10.6 123.7 10.6 123.7
1951-12-10 00:00:00 10.5 122.6 10.6 122.8 10.4 122.8 10.5 122.6 10.5 122.6 10.5 122.6
1951-12-10 06:00:00 10.5 121.6 10.5 121.7 10.4 122.0 10.5 121.6 10.5 121.6 10.5 121.6
1951-12-10 12:00:00 10.5 120.7 10.5 120.9 10.4 121.0 10.5 120.7 10.5 120.7 10.5 120.7
1951-12-10 18:00:00 10.5 120.1 10.6 120.1 10.5 120.1 10.6 120.0 10.5 120.1 10.5 120.1
1951-12-11 00:00:00 10.7 119.4 10.7 119.5 10.6 119.6 10.7 119.4 10.7 119.4 10.7 119.4
1951-12-11 06:00:00 10.9 119.0 10.8 119.0 10.7 119.0 10.9 119.0 10.9 119.0 10.9 119.0
1951-12-11 12:00:00 11.1 118.8 11.0 118.6 10.9 118.5 11.1 118.8 11.1 118.8 11.1 118.8
1951-12-11 18:00:00 11.3 118.6 11.3 118.3 11.1 118.0 11.3 118.6 11.3 118.6 11.3 118.6
1951-12-12 00:00:00 11.5 118.4 11.6 118.2 11.7 117.8 11.5 118.4 11.5 118.4 11.5 118.4
1951-12-12 06:00:00 11.7 118.3 11.7 118.3 11.7 118.2 11.7 118.3 11.7 118.3 11.7 118.3
1951-12-12 12:00:00 11.9 118.2 11.7 118.5 11.6 118.4 11.9 118.2 11.9 118.2 11.9 118.2
1951-12-12 18:00:00 12.1 118.2 12.0 118.6 11.7 118.7 12.2 118.2 12.1 118.2 12.1 118.2
1951-12-13 00:00:00 12.4 118.3 12.3 118.6 12.0 118.7 12.4 118.3 12.4 118.3 12.4 118.3
1951-12-13 06:00:00 12.5 118.5 12.4 118.5 12.4 118.6 12.5 118.5 12.5 118.5 12.5 118.5
1951-12-13 12:00:00 12.5 118.7 12.7 118.3 12.6 118.5 12.5 118.7 12.5 118.7 12.5 118.7
1951-12-13 18:00:00 12.3 118.5 12.5 118.2 12.5 118.2 12.4 118.5 12.3 118.5 12.3 118.5
1951-12-14 00:00:00 12.2 118.2 12.2 118.2 12.2 118.1 12.2 118.2 12.2 118.2 12.2 118.2
1951-12-14 06:00:00 12.0 118.3 12.0 118.3 12.0 118.0 12.0 118.2 12.0 118.3 12.0 118.3
1951-12-14 12:00:00 11.8 118.3 11.7 118.3 11.8 118.0 11.8 118.3 11.8 118.3 11.8 118.3
1951-12-14 18:00:00 11.6 118.2 11.6 118.2 11.6 118.0 11.6 118.2 11.6 118.2 11.6 118.2
1951-12-15 00:00:00 11.4 117.9 11.5 118.1 11.3 118.0 11.4 117.9 11.4 117.9 11.4 117.9
jtwc_wp tokyo cma td9636 td9635 ds824_wp
1951-12-15 06:00:00 11.3 117.5 11.3 117.6 11.1 117.7 11.3 117.5 11.3 117.5 11.3 117.5
1951-12-15 12:00:00 11.2 117.1 11.2 117.2 11.0 117.3 11.2 117.1 11.2 117.1 11.2 117.1
1951-12-15 18:00:00 11.1 116.7 11.2 116.8 11.0 116.8 11.1 116.7 11.1 116.7 11.1 116.7
1951-12-16 00:00:00 11.0 116.3 11.1 116.5 11.1 116.3 11.0 116.3 11.0 116.3 11.0 116.3
1951-12-16 06:00:00 10.7 115.7 10.7 115.7 10.9 115.6 10.8 115.7 10.7 115.7 10.7 115.7
1951-12-16 12:00:00 10.5 115.1 10.6 114.8 10.5 114.9 10.5 115.1 10.5 115.1 10.5 115.1
1951-12-16 18:00:00 10.3 114.7 10.6 114.0 10.4 114.0 10.3 114.4 10.3 114.7 10.3 114.7
1951-12-17 00:00:00 10.1 113.8 10.7 113.3 10.7 113.4 10.1 113.8 10.1 113.8 10.1 113.8
1951-12-17 06:00:00 10.9 112.5 11.0 112.5 10.8 113.1 10.9 112.5 10.9 112.5
1951-12-17 12:00:00 11.0 111.8 11.1 112.8
1951-12-17 18:00:00 11.0 111.0 11.3 112.5
1951-12-18 00:00:00 11.6 112.3
1951-12-18 06:00:00 11.9 112.2
1951-12-18 12:00:00 12.2 112.1
1951-12-18 18:00:00 12.6 112.0
1951-12-19 00:00:00 13.0 112.0

top of pageTrack Data:Intensity

jtwc_wp tokyo cma td9636 td9635 ds824_wp
Date Wind Pres Wind Pres Wind Pres Wind Pres Wind Pres Wind Pres
1951-12-03 00:00:00 60. 1000. 29. 1000. 60. 60. 999. 60.
1951-12-03 06:00:00 70. 999. 29. 999. 60. 70. 999. 70.
1951-12-03 12:00:00 70. 999. 29. 999. 70. 70. 999. 70.
1951-12-03 18:00:00 65. 999. 29. 999. 70. 65. 999. 65.
1951-12-04 00:00:00 65. 998. 39. 998. 65. 65. 999. 65.
1951-12-04 06:00:00 65. 998. 39. 998. 65. 65. 1001. 65.
1951-12-04 12:00:00 55. 998. 39. 998. 55. 55. 1003. 55.
1951-12-04 18:00:00 50. 998. 39. 998. 55. 50. 1005. 50.
1951-12-05 00:00:00 45. 998. 39. 998. 45. 45. 1000. 45.
1951-12-05 06:00:00 85. 995. 49. 995. 45. 85. 988. 85.
1951-12-05 12:00:00 90. 995. 49. 995. 90. 90. 984. 90.
1951-12-05 18:00:00 95. 980. 68. 980. 90. 95. 980. 95.
1951-12-06 00:00:00 100. 970. 78. 970. 100. 100. 975. 100.
1951-12-06 06:00:00 100. 950. 107. 950. 100. 100. 966. 100.
1951-12-06 12:00:00 100. 950. 107. 950. 100. 100. 959. 100.
1951-12-06 18:00:00 100. 950. 107. 950. 100. 100. 953. 100.
1951-12-07 00:00:00 100. 950. 107. 950. 100. 100. 946. 100.
1951-12-07 06:00:00 100. 950. 107. 950. 100. 100. 938. 100.
1951-12-07 12:00:00 100. 950. 107. 950. 100. 100. 934. 100.
1951-12-07 18:00:00 100. 950. 107. 950. 100. 100. 929. 100.
1951-12-08 00:00:00 100. 950. 107. 950. 100. 100. 924. 100.
1951-12-08 06:00:00 100. 950. 107. 950. 100. 100. 934. 100.
1951-12-08 12:00:00 120. 950. 107. 950. 120. 120. 944. 120.
1951-12-08 18:00:00 110. 950. 107. 950. 120. 110. 946. 110.
1951-12-09 00:00:00 100. 950. 107. 950. 100. 100. 949. 100.
jtwc_wp tokyo cma td9636 td9635 ds824_wp
1951-12-09 06:00:00 95. 950. 107. 950. 100. 95. 953. 95.
1951-12-09 12:00:00 90. 950. 97. 955. 90. 90. 957. 90.
1951-12-09 18:00:00 85. 960. 97. 960. 90. 85. 960. 85.
1951-12-10 00:00:00 85. 960. 97. 960. 85. 85. 964. 85.
1951-12-10 06:00:00 85. 960. 97. 960. 85. 85. 968. 85.
1951-12-10 12:00:00 80. 960. 97. 960. 80. 80. 972. 80.
1951-12-10 18:00:00 80. 960. 97. 960. 80. 80. 976. 80.
1951-12-11 00:00:00 80. 960. 87. 968. 80. 80. 980. 80.
1951-12-11 06:00:00 80. 970. 87. 968. 80. 80. 984. 80.
1951-12-11 12:00:00 80. 968. 87. 968. 80. 80. 982. 80.
1951-12-11 18:00:00 85. 968. 87. 968. 80. 85. 977. 85.
1951-12-12 00:00:00 85. 968. 87. 968. 85. 85. 974. 85.
1951-12-12 06:00:00 85. 968. 87. 968. 85. 85. 969. 85.
1951-12-12 12:00:00 90. 970. 78. 970. 90. 90. 971. 90.
1951-12-12 18:00:00 90. 975. 78. 975. 90. 90. 977. 90.
1951-12-13 00:00:00 85. 980. 68. 980. 85. 85. 982. 85.
1951-12-13 06:00:00 85. 985. 58. 985. 85. 85. 987. 85.
1951-12-13 12:00:00 80. 985. 58. 985. 80. 80. 991. 80.
1951-12-13 18:00:00 80. 990. 49. 990. 80. 80. 994. 80.
1951-12-14 00:00:00 80. 990. 49. 990. 80. 80. 996. 80.
1951-12-14 06:00:00 85. 990. 49. 990. 80. 85. 997. 85.
1951-12-14 12:00:00 90. 990. 49. 990. 90. 90. 994. 90.
1951-12-14 18:00:00 95. 990. 49. 990. 90. 95. 990. 95.
1951-12-15 00:00:00 100. 990. 49. 990. 100. 100. 987. 100.
jtwc_wp tokyo cma td9636 td9635 ds824_wp
1951-12-15 06:00:00 100. 990. 49. 990. 100. 100. 985. 100.
1951-12-15 12:00:00 100. 995. 39. 995. 100. 100. 986. 100.
1951-12-15 18:00:00 85. 995. 39. 995. 100. 85. 990. 85.
1951-12-16 00:00:00 70. 995. 39. 995. 70. 70. 994. 70.
1951-12-16 06:00:00 85. 995. 39. 995. 70. 85. 993. 85.
1951-12-16 12:00:00 65. 995. 39. 995. 65. 65. 997. 65.
1951-12-16 18:00:00 55. 995. 39. 995. 65. 55. 1001. 55.
1951-12-17 00:00:00 35. 995. 39. 995. 35. 35. 1004. 35.
1951-12-17 06:00:00 35. 1000. 29. 1000. 35. 1008. 35.
1951-12-17 12:00:00 1000. 29. 1000.
1951-12-17 18:00:00 1000. 29. 1000.
1951-12-18 00:00:00 29. 1002.
1951-12-18 06:00:00 29. 1002.
1951-12-18 12:00:00 23. 1004.
1951-12-18 18:00:00 23. 1004.
1951-12-19 00:00:00 19. 1008.

top of page Links to source data

Source Source file Format
jtwc_wp bwp161951.txt ATCF
tokyo bst_all.txt:Line=726:AMY:5120 JMA text table
cma CH1951BST.txt:Storm=29:Amy CMA text table
td9636 cons_worldwide_trop_cyclone_18710101-19891231-003:Line=15816 TD 9636
td9635 typhoons-analogs_19450101-19761231.corrected:Line=14377 TD 9635
ds824_wp w_npac.dat:149:16W HURDAT